Time,TemperatureF,DewpointF,PressureIn,WindDirection,WindDirectionDegrees,WindSpeedMPH,WindSpeedGustMPH,Humidity,HourlyPrecipIn,Conditions,Clouds,dailyrainin,SoftwareType,DateUTC
2013-06-03 00:01:00,63.6,62.4,29.84,South,186,8.0,15.0,96,0.00,,---,0.00,VWS V14.01,2013-06-03 04:01:00,
2013-06-03 00:16:00,63.8,62.6,29.84,SW,220,9.0,16.0,96,0.00,,---,0.00,VWS V14.01,2013-06-03 04:16:00,
2013-06-03 00:31:00,64.0,62.8,29.84,SW,227,7.0,17.0,96,0.00,,---,0.00,VWS V14.01,2013-06-03 04:31:00,
2013-06-03 00:46:00,64.0,62.8,29.84,SSW,192,7.0,19.0,96,0.00,,---,0.00,VWS V14.01,2013-06-03 04:46:00,
2013-06-03 01:01:00,64.1,62.9,29.84,WSW,242,7.0,19.0,96,0.00,,---,0.00,VWS V14.01,2013-06-03 05:01:00,
2013-06-03 01:16:00,64.2,63.0,29.84,SW,233,8.0,21.0,96,0.00,,---,0.00,VWS V14.01,2013-06-03 05:16:00,
2013-06-03 01:31:00,64.3,63.1,29.84,SSW,211,10.0,20.0,96,0.00,,---,0.00,VWS V14.01,2013-06-03 05:31:00,
2013-06-03 01:46:00,64.1,62.9,29.84,West,263,6.0,19.0,96,0.01,,---,0.01,VWS V14.01,2013-06-03 05:46:00,
2013-06-03 02:01:00,63.9,62.7,29.83,SSW,211,11.0,18.0,96,0.03,,---,0.03,VWS V14.01,2013-06-03 06:01:00,
2013-06-03 02:16:00,63.8,62.6,29.83,WSW,244,7.0,17.0,96,0.03,,---,0.03,VWS V14.01,2013-06-03 06:16:00,
2013-06-03 02:31:00,63.8,62.9,29.83,SW,225,5.0,19.0,97,0.03,,---,0.03,VWS V14.01,2013-06-03 06:31:00,
2013-06-03 02:46:00,64.0,63.1,29.83,SW,227,9.0,19.0,97,0.07,,---,0.07,VWS V14.01,2013-06-03 06:46:00,
2013-06-03 03:01:00,65.0,64.1,29.81,SW,224,14.0,20.0,97,0.17,,---,0.18,VWS V14.01,2013-06-03 07:01:00,
2013-06-03 03:16:00,65.3,64.4,29.82,SSW,196,14.0,23.0,97,0.16,,---,0.19,VWS V14.01,2013-06-03 07:16:00,
2013-06-03 03:31:00,64.5,63.6,29.82,SW,232,10.0,21.0,97,0.16,,---,0.19,VWS V14.01,2013-06-03 07:31:00,
2013-06-03 03:46:00,64.3,63.4,29.82,SSW,209,8.0,16.0,97,0.18,,---,0.21,VWS V14.01,2013-06-03 07:46:00,
2013-06-03 04:01:00,63.9,63.0,29.82,South,186,5.0,17.0,97,0.21,,---,0.28,VWS V14.01,2013-06-03 08:01:00,
2013-06-03 04:16:00,64.3,63.4,29.82,SSW,194,8.0,20.0,97,0.22,,---,0.40,VWS V14.01,2013-06-03 08:16:00,
2013-06-03 04:31:00,64.2,63.3,29.82,WSW,241,15.0,21.0,97,0.29,,---,0.48,VWS V14.01,2013-06-03 08:31:00,
2013-06-03 04:46:00,63.9,63.0,29.82,SW,223,9.0,20.0,97,0.30,,---,0.49,VWS V14.01,2013-06-03 08:46:00,
2013-06-03 05:01:00,63.4,62.5,29.83,SW,217,6.0,25.0,97,0.28,,---,0.49,VWS V14.01,2013-06-03 09:01:00,
2013-06-03 05:16:00,63.4,62.5,29.83,SSW,206,19.0,19.0,97,0.21,,---,0.49,VWS V14.01,2013-06-03 09:16:00,
2013-06-03 05:31:00,63.5,62.6,29.83,SW,236,11.0,16.0,97,0.10,,---,0.50,VWS V14.01,2013-06-03 09:31:00,
2013-06-03 05:46:00,63.9,63.0,29.83,WSW,242,9.0,16.0,97,0.06,,---,0.54,VWS V14.01,2013-06-03 09:46:00,
2013-06-03 06:01:00,64.1,63.2,29.82,SW,221,8.0,16.0,97,0.06,,---,0.55,VWS V14.01,2013-06-03 10:01:00,
2013-06-03 06:16:00,63.8,62.9,29.83,SSW,200,7.0,17.0,97,0.07,,---,0.56,VWS V14.01,2013-06-03 10:16:00,
2013-06-03 06:31:00,63.6,62.7,29.83,SW,225,11.0,20.0,97,0.08,,---,0.57,VWS V14.01,2013-06-03 10:31:00,
2013-06-03 06:46:00,63.8,62.9,29.83,SSW,206,9.0,18.0,97,0.08,,---,0.58,VWS V14.01,2013-06-03 10:46:00,
2013-06-03 07:01:00,63.5,62.6,29.83,SW,235,8.0,16.0,97,0.04,,---,0.58,VWS V14.01,2013-06-03 11:01:00,
2013-06-03 07:16:00,63.5,62.6,29.83,SW,220,6.0,17.0,97,0.04,,---,0.59,VWS V14.01,2013-06-03 11:16:00,
2013-06-03 07:31:00,63.2,62.3,29.83,SSW,207,11.0,20.0,97,0.03,,---,0.59,VWS V14.01,2013-06-03 11:31:00,
2013-06-03 07:46:00,63.0,62.1,29.83,SSW,207,9.0,19.0,97,0.02,,---,0.59,VWS V14.01,2013-06-03 11:46:00,
2013-06-03 08:01:00,63.0,62.1,29.83,WSW,248,7.0,18.0,97,0.01,,---,0.59,VWS V14.01,2013-06-03 12:01:00,
2013-06-03 08:16:00,63.2,62.3,29.83,SSW,212,5.0,18.0,97,0.01,,---,0.59,VWS V14.01,2013-06-03 12:16:00,
2013-06-03 08:31:00,63.1,62.2,29.84,SSW,212,8.0,16.0,97,0.00,,---,0.59,VWS V14.01,2013-06-03 12:31:00,
2013-06-03 08:46:00,63.5,62.6,29.84,SSW,209,7.0,16.0,97,0.00,,---,0.59,VWS V14.01,2013-06-03 12:46:00,
2013-06-03 09:01:00,63.7,62.8,29.84,SW,227,7.0,13.0,97,0.00,,---,0.59,VWS V14.01,2013-06-03 13:01:00,
2013-06-03 09:16:00,63.6,62.7,29.84,SW,221,8.0,18.0,97,0.00,,---,0.59,VWS V14.01,2013-06-03 13:16:00,
2013-06-03 09:31:00,63.4,62.5,29.84,SSW,204,6.0,16.0,97,0.00,,---,0.59,VWS V14.01,2013-06-03 13:31:00,
2013-06-03 09:46:00,63.4,62.5,29.83,SSW,200,7.0,16.0,97,0.00,,---,0.59,VWS V14.01,2013-06-03 13:46:00,
2013-06-03 10:01:00,63.1,62.2,29.84,SSW,209,3.0,14.0,97,0.00,,---,0.59,VWS V14.01,2013-06-03 14:01:00,
2013-06-03 10:16:00,62.9,62.0,29.83,SW,219,4.0,14.0,97,0.00,,---,0.59,VWS V14.01,2013-06-03 14:16:00,
2013-06-03 10:31:00,62.5,61.6,29.83,SW,227,9.0,12.0,97,0.00,,---,0.59,VWS V14.01,2013-06-03 14:31:00,
2013-06-03 10:46:00,62.5,61.6,29.83,SSW,196,6.0,13.0,97,0.01,,---,0.60,VWS V14.01,2013-06-03 14:46:00,
2013-06-03 11:01:00,62.3,61.4,29.82,SW,222,4.0,14.0,97,0.04,,---,0.63,VWS V14.01,2013-06-03 15:01:00,
2013-06-03 11:16:00,62.4,61.5,29.82,SW,229,11.0,15.0,97,0.04,,---,0.63,VWS V14.01,2013-06-03 15:16:00,
2013-06-03 11:31:00,62.0,61.1,29.82,SW,234,9.0,18.0,97,0.18,,---,0.77,VWS V14.01,2013-06-03 15:31:00,
2013-06-03 11:46:00,62.8,61.9,29.82,SSW,196,10.0,13.0,97,0.19,,---,0.78,VWS V14.01,2013-06-03 15:46:00,
2013-06-03 12:01:00,62.6,61.7,29.81,SSW,204,7.0,13.0,97,0.20,,---,0.80,VWS V14.01,2013-06-03 16:01:00,
2013-06-03 12:16:00,62.3,61.4,29.82,WSW,254,6.0,16.0,97,0.20,,---,0.83,VWS V14.01,2013-06-03 16:16:00,
2013-06-03 12:31:00,62.0,61.1,29.82,SW,223,5.0,15.0,97,0.25,,---,0.88,VWS V14.01,2013-06-03 16:31:00,
2013-06-03 12:46:00,62.1,61.2,29.81,SSW,211,6.0,13.0,97,0.21,,---,0.98,VWS V14.01,2013-06-03 16:46:00,
2013-06-03 13:01:00,62.1,61.2,29.81,SW,227,9.0,18.0,97,0.23,,---,1.01,VWS V14.01,2013-06-03 17:01:00,
2013-06-03 13:16:00,61.9,61.0,29.81,SW,229,8.0,17.0,97,0.22,,---,1.02,VWS V14.01,2013-06-03 17:16:00,
2013-06-03 13:31:00,62.9,62.0,29.81,WSW,240,6.0,14.0,97,0.19,,---,1.02,VWS V14.01,2013-06-03 17:31:00,
2013-06-03 13:46:00,63.4,62.8,29.81,SW,229,9.0,15.0,98,0.14,,---,1.02,VWS V14.01,2013-06-03 17:46:00,
2013-06-03 14:01:00,63.6,62.7,29.81,SW,235,12.0,18.0,97,0.04,,---,1.02,VWS V14.01,2013-06-03 18:01:00,
2013-06-03 14:16:00,64.0,63.4,29.81,SW,230,5.0,19.0,98,0.01,,---,1.02,VWS V14.01,2013-06-03 18:16:00,
2013-06-03 14:31:00,63.6,62.7,29.81,SW,232,7.0,18.0,97,0.00,,---,1.02,VWS V14.01,2013-06-03 18:31:00,
2013-06-03 14:46:00,63.7,62.8,29.81,WSW,242,2.0,13.0,97,0.01,,---,1.03,VWS V14.01,2013-06-03 18:46:00,
2013-06-03 15:01:00,63.3,62.4,29.81,SSW,212,6.0,15.0,97,0.01,,---,1.03,VWS V14.01,2013-06-03 19:01:00,
2013-06-03 15:16:00,62.7,61.8,29.80,SW,214,3.0,14.0,97,0.01,,---,1.03,VWS V14.01,2013-06-03 19:16:00,
2013-06-03 15:31:00,62.8,61.9,29.80,SSW,209,5.0,12.0,97,0.01,,---,1.03,VWS V14.01,2013-06-03 19:31:00,
2013-06-03 15:46:00,63.1,62.2,29.80,WSW,238,7.0,13.0,97,0.01,,---,1.03,VWS V14.01,2013-06-03 19:46:00,
2013-06-03 16:01:00,63.0,62.4,29.80,West,266,15.0,18.0,98,0.00,,---,1.03,VWS V14.01,2013-06-03 20:01:00,
2013-06-03 16:16:00,63.0,62.1,29.80,SW,216,6.0,20.0,97,0.00,,---,1.03,VWS V14.01,2013-06-03 20:16:00,
2013-06-03 16:31:00,62.9,62.0,29.80,SW,234,6.0,18.0,97,0.00,,---,1.03,VWS V14.01,2013-06-03 20:31:00,
2013-06-03 16:46:00,63.1,62.5,29.79,WSW,252,12.0,18.0,98,0.01,,---,1.04,VWS V14.01,2013-06-03 20:46:00,
2013-06-03 17:01:00,63.1,62.5,29.80,SSW,206,9.0,19.0,98,0.03,,---,1.06,VWS V14.01,2013-06-03 21:01:00,
2013-06-03 17:16:00,63.0,62.1,29.79,WSW,239,10.0,20.0,97,0.12,,---,1.15,VWS V14.01,2013-06-03 21:16:00,
2013-06-03 17:31:00,63.1,62.2,29.78,SW,223,10.0,17.0,97,0.13,,---,1.16,VWS V14.01,2013-06-03 21:31:00,
2013-06-03 17:46:00,62.8,62.2,29.78,SSW,211,11.0,17.0,98,0.13,,---,1.16,VWS V14.01,2013-06-03 21:46:00,
2013-06-03 18:01:00,63.1,62.2,29.78,West,269,13.0,18.0,97,0.13,,---,1.17,VWS V14.01,2013-06-03 22:01:00,
2013-06-03 18:16:00,63.6,63.0,29.78,WSW,257,6.0,21.0,98,0.11,,---,1.17,VWS V14.01,2013-06-03 22:16:00,
2013-06-03 18:31:00,63.6,62.7,29.78,SSW,209,9.0,23.0,97,0.02,,---,1.17,VWS V14.01,2013-06-03 22:31:00,
2013-06-03 18:46:00,63.3,62.7,29.78,South,183,7.0,15.0,98,0.01,,---,1.17,VWS V14.01,2013-06-03 22:46:00,
2013-06-03 19:01:00,63.4,62.8,29.79,WSW,246,10.0,15.0,98,0.03,,---,1.19,VWS V14.01,2013-06-03 23:01:00,
2013-06-03 19:16:00,62.9,62.0,29.79,SW,219,6.0,14.0,97,0.02,,---,1.19,VWS V14.01,2013-06-03 23:16:00,
2013-06-03 19:31:00,63.0,62.1,29.79,SSW,207,9.0,15.0,97,0.03,,---,1.20,VWS V14.01,2013-06-03 23:31:00,
2013-06-03 19:46:00,62.7,62.1,29.79,SSW,207,9.0,15.0,98,0.03,,---,1.20,VWS V14.01,2013-06-03 23:46:00,
2013-06-03 20:01:00,62.2,61.3,29.79,SSW,207,5.0,13.0,97,0.03,,---,1.20,VWS V14.01,2013-06-04 00:01:00,
2013-06-03 20:16:00,61.9,61.3,29.79,WSW,244,6.0,12.0,98,0.01,,---,1.20,VWS V14.01,2013-06-04 00:16:00,
2013-06-03 20:31:00,62.4,61.8,29.78,SW,233,6.0,13.0,98,0.01,,---,1.20,VWS V14.01,2013-06-04 00:31:00,
2013-06-03 20:46:00,62.6,62.0,29.78,SW,236,5.0,16.0,98,0.00,,---,1.20,VWS V14.01,2013-06-04 00:46:00,
2013-06-03 21:01:00,62.2,61.6,29.78,SSW,200,5.0,12.0,98,0.00,,---,1.20,VWS V14.01,2013-06-04 01:01:00,
2013-06-03 21:16:00,61.8,61.2,29.79,SW,215,6.0,12.0,98,0.00,,---,1.20,VWS V14.01,2013-06-04 01:16:00,
2013-06-03 21:31:00,61.3,60.7,29.79,SSW,198,7.0,16.0,98,0.00,,---,1.20,VWS V14.01,2013-06-04 01:31:00,
2013-06-03 21:46:00,61.1,60.5,29.79,SW,218,7.0,13.0,98,0.00,,---,1.20,VWS V14.01,2013-06-04 01:46:00,
2013-06-03 22:01:00,61.3,60.7,29.78,SSW,208,4.0,11.0,98,0.00,,---,1.20,VWS V14.01,2013-06-04 02:01:00,
2013-06-03 22:16:00,61.2,60.6,29.78,SSW,207,6.0,8.0,98,0.00,,---,1.20,VWS V14.01,2013-06-04 02:16:00,
2013-06-03 22:31:00,61.5,60.9,29.77,WSW,245,2.0,8.0,98,0.00,,---,1.20,VWS V14.01,2013-06-04 02:31:00,
2013-06-03 22:46:00,61.9,61.3,29.77,SW,229,6.0,11.0,98,0.00,,---,1.20,VWS V14.01,2013-06-04 02:46:00,
2013-06-03 23:01:00,62.1,61.5,29.77,WSW,246,4.0,11.0,98,0.00,,---,1.20,VWS V14.01,2013-06-04 03:01:00,
2013-06-03 23:16:00,62.1,61.5,29.76,SW,225,3.0,10.0,98,0.00,,---,1.20,VWS V14.01,2013-06-04 03:16:00,
2013-06-03 23:31:00,61.9,61.3,29.75,SW,234,6.0,9.0,98,0.00,,---,1.20,VWS V14.01,2013-06-04 03:31:00,
2013-06-03 23:46:00,61.6,61.0,29.76,SW,231,4.0,9.0,98,0.00,,---,1.20,VWS V14.01,2013-06-04 03:46:00,